Watrous, NM (87750)

6:10 AM MST on February 07, 2016 (GMT -0700)
Las Vegas Municipal | | Change Station
CLOSE
Current Station
Airport
Location: Las Vegas,
Elevation: 6877 ft
Nearby Weather Stations

Elev 6877 ft 35.65 °N, 105.14 °W | Updated 17 minutes ago

Clear
Clear
30 °F
Feels Like 22 °F
N
9
Wind Variable Wind from NNW

Today
High -- | Low -- °F
--% Chance of Precip.
Yesterday
High -- | Low -- °F
Precip. -- in
Pressure 30.15 in
Visibility 10.0 miles
Clouds Clear
Windchill 22 °F
Dew Point 13 °F
Humidity 49%
Rainfall 0.00 in
Snow Depth Not available.
6:55 AM 5:33 PM
Waning Crescent, 2% visible
METAR KLVS 071253Z AUTO 34008KT 10SM CLR M01/M11 A3020 RMK AO2 SLP210 T10111106
Pressure 30.15 in
Visibility 10.0 miles
Clouds Clear
Windchill 22 °F
Dew Point 13 °F
Humidity 49%
Rainfall 0.00 in
Snow Depth Not available.
6:55 AM 5:33 PM
Waning Crescent, 2% visible
METAR KLVS 071253Z AUTO 34008KT 10SM CLR M01/M11 A3020 RMK AO2 SLP210 T10111106

10-Day Weather Forecast

Almanac

Astronomy

Feb. 07, 2016 Rise Set
Actual Time
Civil Twilight
Nautical Twilight
Astronomical Twilight
Moon
Length of Visible Light
Length of Day
Tomorrow will be .
, % of the Moon is Illuminated

Today's Extremes

State Highs State Lows

Community

WunderPhotos

Upload Photos

1,891,189 photos uploaded!

WunderBlog® & News

Nearby

Air Quality

  Air Quality AQ Index Pollutant
Not available.

Snow Depth

Station Depth Elevation

Earthquake Activity

City Distance Mag. Time & Date
Minimum magnitude displayed is 2.5.

Coastal Water Temperatures

Place Temperature

Stations

Nearby Weather Stations

Station Location Temp. Windchill Dew Point Humidity Wind Precip. Elev Updated Type
                   

Watches & Warnings

There are currently no watches in effect.